Time;durP1;ratioP1;P1;durP2;ratioP2;P2;SDS_P1;SDS_P2;PMS_P1;PMS_P2;Temp;Humidity;BMP_temperature;BMP_pressure;BME280_temperature;BME280_humidity;BME280_pressure;Samples;Min_cycle;Max_cycle;Signal;HPM_P1;HPM_P2
2023/08/11 00:05:40;;;;;;;12.20;7.70;;;;;;;11.20;100.00;99633.48;272576;1266;23930;-84
2023/08/11 00:11:42;;;;;;;12.70;8.00;;;;;;;11.13;100.00;99623.49;272509;1269;22501;-84
2023/08/11 00:17:47;;;;;;;16.60;9.20;;;;;;;11.04;100.00;99621.06;271542;1266;22508;-84
2023/08/11 00:23:49;;;;;;;15.10;9.40;;;;;;;10.97;100.00;99627.50;270505;1269;22537;-84
2023/08/11 00:29:51;;;;;;;11.10;7.80;;;;;;;10.92;100.00;99626.80;271780;1269;22630;-85
2023/08/11 00:35:52;;;;;;;14.80;8.60;;;;;;;10.87;100.00;99628.95;270614;1269;1164104;-85
2023/08/11 00:41:55;;;;;;;10.30;8.40;;;;;;;10.86;100.00;99632.20;272060;1269;22165;-84
2023/08/11 00:48:00;;;;;;;12.40;9.20;;;;;;;10.85;100.00;99627.56;271725;1269;22545;-84
2023/08/11 00:54:06;;;;;;;12.00;8.70;;;;;;;10.79;100.00;99629.56;271233;1269;22237;-84
2023/08/11 01:00:11;;;;;;;13.10;7.90;;;;;;;10.74;100.00;99631.48;273312;1269;22180;-84
2023/08/11 01:06:25;;;;;;;13.90;8.60;;;;;;;10.72;100.00;99629.73;272617;1269;22315;-85
2023/08/11 01:12:35;;;;;;;13.00;7.70;;;;;;;10.68;100.00;99628.95;273274;1269;23712;-84
2023/08/11 01:18:37;;;;;;;12.40;6.60;;;;;;;10.68;100.00;99625.44;271724;1269;22550;-84
2023/08/11 01:24:41;;;;;;;10.70;6.40;;;;;;;10.63;100.00;99623.69;271564;1269;22217;-84
2023/08/11 01:30:43;;;;;;;11.80;6.80;;;;;;;10.61;100.00;99623.00;273125;1269;22975;-85
2023/08/11 01:36:46;;;;;;;8.60;6.80;;;;;;;10.50;100.00;99623.95;273091;1257;23355;-84
2023/08/11 01:42:51;;;;;;;8.70;7.00;;;;;;;10.45;100.00;99622.45;272954;1269;23487;-84
2023/08/11 01:48:55;;;;;;;13.80;7.20;;;;;;;10.41;100.00;99623.44;273046;1269;22485;-84
2023/08/11 01:54:57;;;;;;;13.70;7.30;;;;;;;10.44;100.00;99623.59;272943;1269;22552;-85
2023/08/11 02:00:59;;;;;;;12.30;7.40;;;;;;;10.39;100.00;99619.89;273035;1264;22258;-84
2023/08/11 02:07:01;;;;;;;15.10;7.40;;;;;;;10.30;100.00;99620.47;273199;1264;22300;-87
2023/08/11 02:13:02;;;;;;;10.20;6.60;;;;;;;10.21;100.00;99618.17;273212;1269;23345;-84
2023/08/11 02:19:05;;;;;;;10.20;7.20;;;;;;;10.16;100.00;99619.00;273088;1269;22600;-84
2023/08/11 02:25:07;;;;;;;10.40;7.10;;;;;;;10.18;100.00;99622.70;273195;1269;22202;-85
2023/08/11 02:31:09;;;;;;;10.50;6.80;;;;;;;10.20;100.00;99627.92;273146;1269;22382;-84
2023/08/11 02:37:14;;;;;;;9.70;6.50;;;;;;;10.11;100.00;99625.13;273113;1269;22873;-84
2023/08/11 02:43:15;;;;;;;6.60;5.70;;;;;;;10.01;100.00;99627.67;272586;1269;22571;-85
2023/08/11 02:49:18;;;;;;;11.00;6.60;;;;;;;9.89;100.00;99634.02;272955;1269;23970;-85
2023/08/11 02:55:20;;;;;;;11.00;6.60;;;;;;;9.88;100.00;99633.29;272978;1267;22616;-85
2023/08/11 03:01:21;;;;;;;9.60;6.30;;;;;;;9.80;100.00;99632.88;271549;1269;25307;-84
2023/08/11 03:07:23;;;;;;;9.90;6.10;;;;;;;9.76;100.00;99641.44;270916;1269;22469;-85
2023/08/11 03:13:46;;;;;;;8.10;6.20;;;;;;;9.75;100.00;99647.82;273491;1270;22204;-85
2023/08/11 03:19:47;;;;;;;6.20;5.40;;;;;;;9.66;100.00;99652.20;273116;1269;22436;-84
2023/08/11 03:25:49;;;;;;;9.00;5.90;;;;;;;9.62;100.00;99654.55;273153;1269;25157;-84
2023/08/11 03:31:53;;;;;;;10.40;6.50;;;;;;;9.63;100.00;99652.54;273170;1269;22434;-84
2023/08/11 03:37:55;;;;;;;7.60;5.80;;;;;;;9.64;100.00;99653.02;272940;1268;22367;-85
2023/08/11 03:44:02;;;;;;;9.80;6.00;;;;;;;9.70;100.00;99657.77;273145;1269;22229;-84
2023/08/11 03:50:06;;;;;;;10.60;6.30;;;;;;;9.72;100.00;99665.02;273193;1269;22280;-84
2023/08/11 03:56:09;;;;;;;12.40;6.80;;;;;;;9.67;100.00;99662.70;272335;1269;22564;-85
2023/08/11 04:02:16;;;;;;;13.30;7.40;;;;;;;9.70;100.00;99667.70;271710;1269;25021;-84
2023/08/11 04:08:19;;;;;;;10.20;7.40;;;;;;;9.72;100.00;99668.66;273183;1269;22175;-83
2023/08/11 04:14:21;;;;;;;13.00;8.50;;;;;;;9.74;100.00;99665.06;273525;1269;22175;-84
2023/08/11 04:20:28;;;;;;;10.90;7.60;;;;;;;9.82;100.00;99668.45;273676;1269;22176;-84
2023/08/11 04:26:52;;;;;;;13.70;8.00;;;;;;;9.88;100.00;99673.06;273066;1269;22479;-85
2023/08/11 04:32:55;;;;;;;9.00;6.70;;;;;;;9.96;100.00;99673.17;272846;1264;22373;-84
2023/08/11 04:38:58;;;;;;;10.70;8.30;;;;;;;10.04;100.00;99678.38;273004;1269;23063;-84
2023/08/11 04:45:00;;;;;;;11.30;7.70;;;;;;;10.11;100.00;99684.05;272335;1269;22621;-84
2023/08/11 04:51:03;;;;;;;10.30;7.20;;;;;;;10.23;100.00;99686.69;271820;1262;22551;-84
2023/08/11 04:57:06;;;;;;;14.10;7.40;;;;;;;10.34;100.00;99696.71;272971;1269;22430;-84
2023/08/11 05:03:08;;;;;;;9.90;6.90;;;;;;;10.47;100.00;99701.80;272743;1269;22560;-83
2023/08/11 05:09:09;;;;;;;12.20;7.80;;;;;;;10.63;100.00;99707.86;272792;1269;23320;-84
2023/08/11 05:15:11;;;;;;;10.40;8.30;;;;;;;10.82;100.00;99716.23;273124;1269;22199;-85
2023/08/11 05:21:13;;;;;;;13.40;9.30;;;;;;;11.05;100.00;99715.25;271722;1269;24199;-84
2023/08/11 05:27:15;;;;;;;29.60;11.20;;;;;;;11.30;100.00;99711.91;271783;1263;22558;-84
2023/08/11 05:33:17;;;;;;;22.20;11.30;;;;;;;11.51;100.00;99712.55;272377;1262;22600;-85
2023/08/11 05:39:19;;;;;;;21.40;11.40;;;;;;;11.73;100.00;99709.85;271776;1269;22422;-84
2023/08/11 05:45:23;;;;;;;16.90;10.50;;;;;;;11.97;100.00;99711.84;272309;1269;22221;-84
2023/08/11 05:51:25;;;;;;;19.00;11.70;;;;;;;12.23;100.00;99713.36;272943;1269;22463;-84
2023/08/11 05:57:27;;;;;;;28.00;12.10;;;;;;;12.46;100.00;99713.17;270912;1269;22625;-85
2023/08/11 06:03:30;;;;;;;22.50;11.80;;;;;;;12.75;100.00;99710.13;272355;1269;23205;-85
2023/08/11 06:09:32;;;;;;;23.60;12.00;;;;;;;13.01;100.00;99713.48;273249;1269;23285;-84
2023/08/11 06:15:34;;;;;;;33.10;16.00;;;;;;;13.27;100.00;99715.93;273061;1269;22370;-85
2023/08/11 06:21:36;;;;;;;22.80;14.20;;;;;;;13.55;100.00;99710.11;272031;1269;24265;-86
2023/08/11 06:27:38;;;;;;;42.50;14.60;;;;;;;13.82;100.00;99710.46;271958;1263;22161;-85
2023/08/11 06:33:39;;;;;;;11.10;7.60;;;;;;;14.11;100.00;99712.30;272634;1269;22225;-85
2023/08/11 06:39:41;;;;;;;12.30;7.40;;;;;;;14.35;100.00;99710.69;272810;1269;22539;-85
2023/08/11 06:45:45;;;;;;;9.40;6.50;;;;;;;14.58;100.00;99719.28;272509;1269;22504;-84
2023/08/11 06:51:47;;;;;;;10.30;5.70;;;;;;;14.83;100.00;99719.98;273198;1269;22191;-85
2023/08/11 06:57:48;;;;;;;12.30;5.90;;;;;;;15.15;100.00;99721.16;273393;1269;24254;-86
2023/08/11 07:03:51;;;;;;;12.50;8.20;;;;;;;15.47;100.00;99727.05;272702;1269;22566;-84
2023/08/11 07:09:59;;;;;;;19.80;7.60;;;;;;;15.74;100.00;99729.58;272381;1269;22269;-85
2023/08/11 07:16:01;;;;;;;12.00;8.50;;;;;;;15.97;100.00;99730.01;271862;1269;22553;-84
2023/08/11 07:22:04;;;;;;;13.70;8.80;;;;;;;16.22;100.00;99729.15;270622;1269;22507;-85
2023/08/11 07:28:07;;;;;;;11.80;6.30;;;;;;;16.46;100.00;99730.27;271203;1269;22625;-85
2023/08/11 07:34:10;;;;;;;13.10;6.90;;;;;;;16.70;100.00;99732.94;271480;1269;22276;-85
2023/08/11 07:40:12;;;;;;;10.70;6.40;;;;;;;16.99;100.00;99734.05;270877;1269;22553;-85
2023/08/11 07:46:14;;;;;;;9.00;5.60;;;;;;;17.34;100.00;99735.35;271637;1269;22163;-85
2023/08/11 07:52:17;;;;;;;6.10;4.00;;;;;;;17.78;100.00;99735.68;270511;1257;22578;-85
2023/08/11 07:58:18;;;;;;;9.00;4.90;;;;;;;18.27;99.53;99734.08;270434;1267;25223;-86
2023/08/11 08:04:20;;;;;;;5.00;4.00;;;;;;;18.75;98.01;99729.38;271527;1269;24190;-85
2023/08/11 08:10:28;;;;;;;10.90;6.30;;;;;;;19.07;96.08;99723.00;271587;1269;22408;-86
2023/08/11 08:16:30;;;;;;;10.60;5.20;;;;;;;19.44;95.03;99725.11;270903;1269;22558;-85
2023/08/11 08:22:33;;;;;;;8.10;4.80;;;;;;;19.75;94.17;99725.16;272683;1269;22982;-85
2023/08/11 08:28:36;;;;;;;7.90;4.00;;;;;;;20.01;93.16;99727.71;272036;1269;22441;-85
2023/08/11 08:34:38;;;;;;;8.50;3.80;;;;;;;20.29;91.92;99731.27;272289;1269;23365;-86
2023/08/11 08:40:40;;;;;;;6.50;3.30;;;;;;;20.46;90.77;99730.83;271869;1269;22371;-85
2023/08/11 08:46:42;;;;;;;8.10;3.40;;;;;;;20.69;89.78;99731.45;272819;1269;22549;-84
2023/08/11 08:52:43;;;;;;;5.60;3.00;;;;;;;20.85;87.35;99730.44;272705;1269;23089;-86
2023/08/11 08:58:47;;;;;;;6.50;2.90;;;;;;;20.88;85.82;99730.70;273121;1269;22252;-85
2023/08/11 09:04:50;;;;;;;4.40;2.60;;;;;;;20.92;84.12;99725.86;273277;1269;23521;-85
2023/08/11 09:10:53;;;;;;;5.60;2.40;;;;;;;21.10;82.82;99732.05;273286;1269;22157;-84
2023/08/11 09:17:02;;;;;;;4.30;2.20;;;;;;;21.39;81.97;99730.58;273000;1269;22282;-85
2023/08/11 09:23:05;;;;;;;3.90;1.50;;;;;;;21.79;80.37;99728.69;272314;1263;22257;-84
2023/08/11 09:29:08;;;;;;;4.20;2.00;;;;;;;22.20;79.20;99727.17;270680;1269;22515;-83
2023/08/11 09:35:12;;;;;;;2.40;1.60;;;;;;;22.67;76.10;99719.63;270577;1269;22652;-85
2023/08/11 09:41:20;;;;;;;2.30;1.20;;;;;;;23.33;72.77;99728.41;272084;1269;22395;-86
2023/08/11 09:47:22;;;;;;;4.60;1.50;;;;;;;24.08;71.48;99725.42;273158;1269;22399;-85
2023/08/11 09:53:25;;;;;;;3.20;1.40;;;;;;;24.88;69.46;99723.59;271917;1269;23336;-85
2023/08/11 09:59:26;;;;;;;3.30;1.30;;;;;;;25.80;66.84;99722.05;271539;1268;22954;-85
2023/08/11 10:05:29;;;;;;;1.20;0.90;;;;;;;26.42;64.53;99717.23;273092;1269;22169;-86
2023/08/11 10:11:33;;;;;;;1.60;1.20;;;;;;;26.72;61.92;99713.37;273617;1275;22187;-84
2023/08/11 10:17:35;;;;;;;2.00;1.10;;;;;;;27.00;61.78;99705.73;273162;1262;23575;-84
2023/08/11 10:23:40;;;;;;;3.70;1.20;;;;;;;27.14;60.41;99702.27;272534;1259;80072;-91
2023/08/11 10:29:44;;;;;;;5.40;1.80;;;;;;;27.32;60.28;99702.85;272989;1269;22371;-90
2023/08/11 10:35:50;;;;;;;3.80;1.40;;;;;;;27.23;58.06;99698.30;273164;1269;22431;-88
2023/08/11 10:41:59;;;;;;;2.40;1.60;;;;;;;27.36;57.00;99704.52;272503;1269;23044;-89
2023/08/11 10:48:12;;;;;;;3.50;1.40;;;;;;;27.23;54.57;99698.91;270629;1269;22513;-88
2023/08/11 10:54:24;;;;;;;2.80;1.50;;;;;;;27.20;52.88;99699.23;270854;1269;22538;-87
2023/08/11 11:00:26;;;;;;;1.90;0.90;;;;;;;27.49;52.22;99696.83;270995;1269;22540;-87
2023/08/11 11:06:29;;;;;;;3.50;1.30;;;;;;;27.55;51.62;99695.84;271039;1269;22526;-87
2023/08/11 11:12:33;;;;;;;6.20;1.40;;;;;;;27.74;50.02;99686.69;270207;1269;22642;-87
2023/08/11 11:18:42;;;;;;;2.50;1.10;;;;;;;27.87;47.80;99679.08;270762;1269;22521;-87
2023/08/11 11:24:48;;;;;;;2.80;1.50;;;;;;;28.17;48.06;99678.28;270468;1269;22520;-89
2023/08/11 11:30:54;;;;;;;3.50;1.30;;;;;;;28.09;46.81;99670.98;270768;1269;22565;-87
2023/08/11 11:37:00;;;;;;;1.50;1.00;;;;;;;27.99;45.53;99671.57;270647;1269;22536;-91
2023/08/11 11:43:04;;;;;;;2.90;1.00;;;;;;;27.94;44.57;99669.73;270812;1269;25108;-88
2023/08/11 11:49:13;;;;;;;1.40;1.10;;;;;;;27.83;44.21;99673.21;270832;1269;22549;-85
2023/08/11 11:55:19;;;;;;;1.20;0.90;;;;;;;27.59;43.83;99666.80;270810;1269;23339;-85
2023/08/11 12:01:27;;;;;;;1.80;1.00;;;;;;;27.06;42.66;99665.55;270064;1269;22667;-86
2023/08/11 12:07:37;;;;;;;3.20;1.00;;;;;;;26.53;42.41;99666.55;269914;1269;22536;-86
2023/08/11 12:13:40;;;;;;;1.50;1.00;;;;;;;26.01;41.48;99668.09;269899;1269;22539;-85
2023/08/11 12:19:46;;;;;;;2.70;1.30;;;;;;;25.54;41.32;99669.87;269954;1269;22547;-86
2023/08/11 12:25:51;;;;;;;1.60;1.20;;;;;;;25.29;41.45;99671.24;270390;1269;23771;-88
2023/08/11 12:31:55;;;;;;;1.50;1.00;;;;;;;25.16;41.36;99670.67;270078;1269;21926;-87
2023/08/11 12:37:59;;;;;;;2.80;1.10;;;;;;;24.98;42.37;99669.02;267210;1265;3674202;-89
2023/08/11 12:44:02;;;;;;;2.90;1.00;;;;;;;24.74;42.31;99666.23;270461;1269;22529;-87
2023/08/11 12:50:09;;;;;;;1.80;1.20;;;;;;;24.59;42.68;99668.00;270539;1269;23029;-86
2023/08/11 12:56:13;;;;;;;2.20;1.10;;;;;;;24.47;41.97;99668.73;270251;1268;22675;-89
2023/08/11 13:02:18;;;;;;;3.70;1.40;;;;;;;24.31;41.83;99671.77;272449;1269;25461;-89
2023/08/11 13:08:21;;;;;;;1.80;1.10;;;;;;;24.11;41.30;99667.15;270257;1269;22528;-87
2023/08/11 13:14:23;;;;;;;1.80;1.10;;;;;;;24.04;41.71;99665.48;270212;1269;22565;-85
2023/08/11 13:37:07;;;;;;;3.80;1.50;;;;;;;24.16;41.80;99654.45;262714;1296;1394078;-89
2023/08/11 13:43:14;;;;;;;1.70;1.40;;;;;;;23.88;41.59;99649.69;267638;1279;25347;-88
2023/08/11 13:49:24;;;;;;;3.50;1.60;;;;;;;23.59;42.66;99649.23;267844;1268;22570;-90
2023/08/11 14:01:57;;;;;;;3.10;1.60;;;;;;;23.49;42.20;99644.63;265158;1305;545918;-84
2023/08/11 14:08:11;;;;;;;1.80;1.20;;;;;;;23.43;42.27;99634.20;271873;1282;22236;-83
2023/08/11 14:14:13;;;;;;;2.30;1.60;;;;;;;23.24;42.87;99634.81;261933;1270;10180652;-86
2023/08/11 14:20:18;;;;;;;2.10;1.40;;;;;;;23.15;43.50;99637.63;269237;1269;23270;-86
2023/08/11 14:26:20;;;;;;;6.30;1.40;;;;;;;23.05;44.43;99644.08;270862;1268;22567;-86
2023/08/11 14:32:23;;;;;;;4.80;2.40;;;;;;;22.90;44.82;99645.38;270332;1270;22382;-84
2023/08/11 14:38:25;;;;;;;1.70;1.40;;;;;;;22.76;45.46;99638.36;273087;1270;22941;-84
2023/08/11 14:45:09;;;;;;;4.30;1.70;;;;;;;22.68;45.97;99635.81;272379;1267;22211;-85
2023/08/11 14:51:17;;;;;;;6.80;1.90;;;;;;;22.73;45.37;99633.83;269659;1270;23167;-84
2023/08/11 14:57:19;;;;;;;5.20;2.00;;;;;;;22.75;46.13;99639.59;273231;1269;22475;-83
2023/08/11 15:03:22;;;;;;;3.30;1.80;;;;;;;22.69;46.68;99640.48;272370;1270;22543;-85
2023/08/11 15:09:24;;;;;;;3.00;1.60;;;;;;;22.60;46.60;99634.90;272809;1270;22407;-84
2023/08/11 15:15:26;;;;;;;6.70;2.50;;;;;;;22.57;47.24;99633.33;272940;1270;22503;-85
2023/08/11 15:21:28;;;;;;;2.50;1.50;;;;;;;22.52;47.55;99624.98;272795;1270;23307;-85
2023/08/11 15:27:35;;;;;;;1.90;1.60;;;;;;;22.48;48.07;99623.73;271322;1270;22562;-85
2023/08/11 15:33:40;;;;;;;2.30;1.60;;;;;;;22.40;48.11;99628.34;270543;1270;22475;-85
2023/08/11 15:39:42;;;;;;;2.70;1.50;;;;;;;22.42;47.43;99627.23;271112;1270;23165;-85
2023/08/11 15:45:44;;;;;;;2.40;1.80;;;;;;;22.46;47.84;99625.77;272526;1270;22549;-88
2023/08/11 15:51:53;;;;;;;4.40;1.90;;;;;;;22.49;47.97;99626.44;272947;1270;23023;-85
2023/08/11 15:57:58;;;;;;;3.90;1.70;;;;;;;22.46;48.65;99623.31;272903;1270;24158;-85
2023/08/11 16:04:24;;;;;;;2.20;1.40;;;;;;;22.39;48.74;99625.64;272216;1270;23054;-84
2023/08/11 16:10:31;;;;;;;3.10;1.30;;;;;;;22.32;48.29;99628.54;269738;1270;22527;-84
2023/08/11 16:16:33;;;;;;;1.80;1.50;;;;;;;22.23;48.42;99623.60;270155;1270;22596;-83
2023/08/11 16:22:35;;;;;;;3.50;1.70;;;;;;;22.18;48.59;99619.27;271370;1270;23185;-85
2023/08/11 16:28:37;;;;;;;3.90;2.00;;;;;;;22.08;48.84;99614.53;273105;1270;22353;-86
2023/08/11 16:34:39;;;;;;;3.50;1.50;;;;;;;21.98;48.64;99613.73;271500;1270;23692;-84
2023/08/11 16:40:41;;;;;;;2.60;1.50;;;;;;;21.87;48.58;99622.13;270842;1270;24269;-85
2023/08/11 16:46:43;;;;;;;3.10;1.40;;;;;;;21.78;48.66;99623.15;269433;1270;22526;-84
2023/08/11 16:53:32;;;;;;;6.60;2.40;;;;;;;21.71;48.87;99619.77;269879;1270;22345;-84
2023/08/11 17:00:10;;;;;;;3.00;2.10;;;;;;;21.64;49.06;99618.36;269853;1270;24222;-85
2023/08/11 17:06:18;;;;;;;3.80;2.00;;;;;;;21.58;49.06;99619.94;271041;1270;22533;-81
2023/08/11 17:12:47;;;;;;;4.70;2.20;;;;;;;21.49;49.47;99622.30;272075;1266;24168;-85
2023/08/11 17:19:46;;;;;;;3.20;1.50;;;;;;;21.35;49.54;99627.32;271490;1268;22363;-85
2023/08/11 17:26:59;;;;;;;;;;;;;;;;;;;;;
2023/08/11 17:33:27;;;;;;;3.00;1.80;;;;;;;20.98;50.57;99626.02;273270;1264;22467;-84
2023/08/11 17:39:34;;;;;;;3.90;2.30;;;;;;;20.79;51.37;99628.23;270940;1267;23193;-86
2023/08/11 17:55:11;;;;;;;;;;;;;;;;;;;;;
2023/08/11 18:09:46;;;;;;;;;;;;;;;;;;;;;
2023/08/11 18:38:54;;;;;;;7.90;4.80;;;;;;;18.56;64.55;99666.44;270032;1273;22243;-85
2023/08/11 18:44:55;;;;;;;7.10;4.40;;;;;;;18.43;65.11;99668.62;270315;1272;23714;-85
2023/08/11 18:50:57;;;;;;;7.70;4.10;;;;;;;18.28;66.83;99670.56;272033;1273;22612;-84
2023/08/11 18:56:59;;;;;;;7.20;4.40;;;;;;;18.07;67.15;99674.05;264619;1267;10001897;-84
2023/08/11 19:03:20;;;;;;;8.90;5.20;;;;;;;17.87;68.19;99675.17;265831;1267;10002151;-85
2023/08/11 19:09:21;;;;;;;7.70;4.50;;;;;;;17.64;68.29;99677.55;273495;1267;22413;-84
2023/08/11 19:16:05;;;;;;;7.00;4.80;;;;;;;17.44;69.46;99674.57;273819;1269;22201;-84
2023/08/11 19:22:07;;;;;;;10.20;4.90;;;;;;;17.33;72.30;99673.60;273454;1266;22215;-84
2023/08/11 19:28:11;;;;;;;8.50;5.80;;;;;;;17.21;73.86;99673.59;273431;1266;22408;-84
2023/08/11 19:34:14;;;;;;;10.50;5.50;;;;;;;17.05;73.24;99673.96;273512;1266;22360;-85
2023/08/11 19:40:58;;;;;;;10.10;6.40;;;;;;;16.87;74.23;99675.38;273641;1267;22164;-84
2023/08/11 19:47:05;;;;;;;11.10;6.30;;;;;;;16.67;74.65;99674.81;273240;1269;22185;-84
2023/08/11 20:00:21;;;;;;;7.90;5.50;;;;;;;16.40;76.03;99682.25;273778;1269;22228;-84
2023/08/11 20:06:38;;;;;;;10.40;6.50;;;;;;;16.32;77.03;99687.16;273903;1259;22237;-84
2023/08/11 20:12:45;;;;;;;9.20;6.70;;;;;;;16.22;79.12;99686.45;273895;1259;23287;-84
2023/08/11 20:19:20;;;;;;;14.80;6.70;;;;;;;16.04;79.57;99687.73;271675;1269;22252;-84
2023/08/11 20:25:22;;;;;;;14.60;7.10;;;;;;;15.93;80.25;99689.92;273233;1269;23059;-83
2023/08/11 20:31:29;;;;;;;8.70;6.50;;;;;;;15.88;81.51;99694.81;273233;1269;22171;-84
2023/08/11 20:37:31;;;;;;;;;;;;;;;15.85;82.34;99688.50;272948;1269;23444;-84
2023/08/11 20:43:33;;;;;;;11.00;7.40;;;;;;;15.81;82.56;99686.29;270773;1269;24202;-83
2023/08/11 20:49:35;;;;;;;10.70;6.90;;;;;;;15.75;83.54;99685.65;272868;1269;23250;-83
2023/08/11 20:55:37;;;;;;;11.40;6.50;;;;;;;15.65;84.23;99688.94;273203;1269;24197;-83
2023/08/11 21:01:39;;;;;;;11.30;7.50;;;;;;;15.55;84.83;99686.73;273033;1272;22401;-83
2023/08/11 21:08:22;;;;;;;11.80;7.20;;;;;;;15.50;85.22;99689.87;272708;1268;22447;-83
2023/08/11 21:14:47;;;;;;;9.60;6.40;;;;;;;15.45;86.61;99687.64;273546;1269;22183;-83
2023/08/11 21:21:16;;;;;;;8.30;6.10;;;;;;;15.40;87.79;99680.23;271598;1269;22725;-84
2023/08/11 21:27:18;;;;;;;12.80;7.30;;;;;;;15.32;87.82;99683.64;270230;1268;22584;-83
2023/08/11 21:34:28;;;;;;;;;;;;;;;;;;;;;
2023/08/11 21:41:02;;;;;;;13.20;7.50;;;;;;;15.15;89.10;99674.21;272596;1268;22400;-84
2023/08/11 21:47:13;;;;;;;10.40;7.10;;;;;;;15.04;89.18;99676.07;272808;1269;22560;-83
2023/08/11 21:53:43;;;;;;;10.50;8.50;;;;;;;15.00;89.43;99681.31;271301;1269;22631;-85
2023/08/11 22:00:43;;;;;;;;;;;;;;;;;;;;;
2023/08/11 22:07:42;;;;;;;11.40;7.70;;;;;;;14.80;91.10;99687.77;273580;1267;23403;-84
2023/08/11 22:21:54;;;;;;;12.10;7.80;;;;;;;14.71;92.70;99687.70;274192;1267;23108;-84
2023/08/11 22:28:17;;;;;;;10.40;7.50;;;;;;;14.66;93.24;99689.50;273923;1267;22251;-83
2023/08/11 22:34:54;;;;;;;;;;;;;;;;;;;;;
2023/08/11 22:42:29;;;;;;;15.00;8.90;;;;;;;14.61;94.12;99698.04;271948;1267;22543;-83
2023/08/11 22:49:18;;;;;;;;;;;;;;;;;;;;;
2023/08/11 22:56:14;;;;;;;11.50;7.20;;;;;;;14.60;95.32;99694.73;271262;1266;22553;-83
2023/08/11 23:02:16;;;;;;;15.70;7.00;;;;;;;14.58;95.80;99693.69;270651;1266;22379;-83
2023/08/11 23:08:19;;;;;;;8.90;6.50;;;;;;;14.51;95.26;99695.15;273821;1267;22208;-83
2023/08/11 23:14:31;;;;;;;13.60;7.10;;;;;;;14.36;94.85;99689.62;273594;1266;23683;-83
2023/08/11 23:20:33;;;;;;;10.30;7.00;;;;;;;14.26;94.31;99683.23;272935;1266;22433;-84
2023/08/11 23:26:35;;;;;;;12.50;7.50;;;;;;;14.24;94.88;99677.48;273602;1256;22414;-84
2023/08/11 23:32:38;;;;;;;11.30;7.20;;;;;;;14.23;95.75;99679.89;273616;1266;23266;-83
2023/08/11 23:39:00;;;;;;;13.00;7.80;;;;;;;14.23;96.25;99679.43;273488;1267;22208;-83
2023/08/11 23:45:07;;;;;;;9.70;7.30;;;;;;;14.22;96.48;99676.10;273735;1252;22681;-83
2023/08/11 23:51:08;;;;;;;12.00;7.10;;;;;;;14.16;96.52;99674.35;274071;1275;22211;-83
2023/08/11 23:57:10;;;;;;;12.10;6.60;;;;;;;14.02;96.89;99674.30;273508;1267;22412;-84
